Terminal Aerodrome Forecast
Issued by NWS Greer, SC

Home | Current Version | Previous Version | Text Only | Print | Product List | Glossary On
Versions: 1 2 3 4 5 6 7 8 9 10 11 12
000
FTUS42 KGSP 012341
TAFGSP
TAF
KGSP 012341Z 0200/0224 14007KT P6SM -SHRA OVC040
     FM020200 16008KT 5SM -SHRA OVC025
     FM020400 17010KT 4SM -SHRA BR OVC018
     FM020600 19011G20KT 4SM -SHRA BR OVC008
     FM021200 24012G21KT P6SM OVC070
     FM021500 27015G27KT P6SM SCT250
     FM021800 31015G26KT P6SM SCT250=

USA.gov is the U.S. government's official web portal to all federal, state and local government web resources and services.